Time;durP1;ratioP1;P1;durP2;ratioP2;P2;SDS_P1;SDS_P2;PMS_P1;PMS_P2;Temp;Humidity;BMP_temperature;BMP_pressure;BME280_temperature;BME280_humidity;BME280_pressure;Samples;Min_cycle;Max_cycle;Signal;HPM_P1;HPM_P2
2021/09/09 00:02:12;;;;;;;21.87;16.53;;;18.50;99.90;;;;;;5052077;28;20832;-52
2021/09/09 00:04:39;;;;;;;17.83;16.13;;;18.50;99.90;;;;;;5052198;28;20469;-52
2021/09/09 00:07:07;;;;;;;16.20;14.50;;;18.50;99.90;;;;;;5052085;28;20485;-52
2021/09/09 00:09:35;;;;;;;18.47;16.67;;;18.40;99.90;;;;;;5051631;28;20432;-52
2021/09/09 00:12:01;;;;;;;19.03;16.50;;;18.40;99.90;;;;;;5052349;28;20457;-52
2021/09/09 00:14:29;;;;;;;20.60;17.17;;;18.40;99.90;;;;;;5052189;28;20528;-52
2021/09/09 00:16:58;;;;;;;16.90;15.10;;;18.40;99.90;;;;;;5051545;28;20487;-52
2021/09/09 00:19:26;;;;;;;21.00;16.43;;;18.40;99.90;;;;;;5051441;28;20520;-52
2021/09/09 00:21:53;;;;;;;19.03;17.03;;;18.40;99.90;;;;;;5051741;28;20465;-50
2021/09/09 00:24:19;;;;;;;17.13;15.33;;;18.30;99.90;;;;;;5051894;28;20447;-50
2021/09/09 00:26:47;;;;;;;18.57;16.27;;;18.30;99.90;;;;;;5051782;28;20433;-50
2021/09/09 00:29:14;;;;;;;18.40;16.53;;;18.20;99.90;;;;;;5050488;28;20909;-50
2021/09/09 00:31:42;;;;;;;22.90;16.70;;;18.30;99.90;;;;;;5051569;28;20464;-50
2021/09/09 00:34:10;;;;;;;31.73;16.93;;;18.20;99.90;;;;;;5051649;28;20468;-50
2021/09/09 00:36:38;;;;;;;18.03;16.27;;;18.20;99.90;;;;;;5051770;28;20447;-51
2021/09/09 00:39:04;;;;;;;18.57;16.80;;;18.30;99.90;;;;;;5051183;28;20449;-50
2021/09/09 00:41:33;;;;;;;17.73;15.83;;;18.20;99.90;;;;;;5073826;23;20521;-51
2021/09/09 00:44:00;;;;;;;17.13;15.33;;;18.20;99.90;;;;;;5031600;28;20901;-51
2021/09/09 00:46:26;;;;;;;19.27;16.10;;;18.10;99.90;;;;;;5031588;28;20427;-51
2021/09/09 00:48:53;;;;;;;19.93;16.97;;;18.10;99.90;;;;;;5031165;28;20428;-50
2021/09/09 00:51:20;;;;;;;18.67;16.77;;;18.30;99.90;;;;;;5031551;28;20461;-51
2021/09/09 00:53:49;;;;;;;18.43;16.53;;;18.10;99.90;;;;;;5031550;28;20439;-51
2021/09/09 00:56:16;;;;;;;19.73;17.03;;;18.10;99.90;;;;;;5031801;28;20429;-50
2021/09/09 00:58:44;;;;;;;19.60;16.50;;;18.10;99.90;;;;;;5031007;28;20445;-50
2021/09/09 01:01:11;;;;;;;19.43;17.53;;;18.00;99.90;;;;;;5031243;28;20482;-51
2021/09/09 01:03:38;;;;;;;21.07;18.47;;;18.10;99.90;;;;;;5031363;28;20436;-50
2021/09/09 01:06:04;;;;;;;19.20;17.10;;;17.90;99.90;;;;;;5031369;28;20927;-50
2021/09/09 01:08:32;;;;;;;17.70;15.80;;;17.80;99.90;;;;;;5031094;28;20511;-51
2021/09/09 01:11:00;;;;;;;18.63;16.83;;;17.90;99.90;;;;;;5031639;28;20438;-50
2021/09/09 01:13:27;;;;;;;17.40;15.70;;;17.90;99.90;;;;;;5031245;28;20482;-51
2021/09/09 01:15:53;;;;;;;18.20;16.33;;;17.80;99.90;;;;;;5031254;28;20434;-50
2021/09/09 01:18:20;;;;;;;18.90;16.33;;;17.80;99.90;;;;;;5030875;28;20473;-51
2021/09/09 01:20:48;;;;;;;18.33;16.47;;;17.70;99.90;;;;;;5031101;28;20484;-50
2021/09/09 01:23:14;;;;;;;18.30;16.53;;;17.80;99.90;;;;;;5031208;28;20450;-51
2021/09/09 01:25:42;;;;;;;19.17;16.67;;;17.70;99.90;;;;;;5031211;28;20433;-50
2021/09/09 01:28:09;;;;;;;18.10;16.40;;;17.70;99.90;;;;;;5032352;28;20444;-51
2021/09/09 01:30:38;;;;;;;19.57;15.00;;;17.60;99.90;;;;;;5034795;28;20429;-50
2021/09/09 01:33:05;;;;;;;18.43;16.63;;;17.60;99.90;;;;;;5034833;28;20460;-50
2021/09/09 01:35:32;;;;;;;17.90;16.20;;;17.60;99.90;;;;;;5034867;28;20437;-50
2021/09/09 01:37:58;;;;;;;18.10;16.20;;;17.50;99.90;;;;;;5034429;28;20502;-50
2021/09/09 01:40:29;;;;;;;19.57;16.10;;;17.50;99.90;;;;;;5034735;28;20483;-51
2021/09/09 01:42:58;;;;;;;18.17;16.20;;;17.50;99.90;;;;;;5034596;28;20465;-51
2021/09/09 01:45:25;;;;;;;17.03;15.03;;;17.50;99.90;;;;;;5034827;28;20460;-51
2021/09/09 01:47:52;;;;;;;19.00;15.40;;;17.50;99.90;;;;;;5034464;28;20434;-50
2021/09/09 01:50:18;;;;;;;17.93;16.20;;;17.40;99.90;;;;;;5034644;28;20945;-50
2021/09/09 01:52:45;;;;;;;17.80;15.97;;;17.40;99.90;;;;;;5034551;28;20863;-50
2021/09/09 01:55:12;;;;;;;19.03;17.20;;;17.40;99.90;;;;;;5034541;28;20441;-50
2021/09/09 01:57:38;;;;;;;16.80;15.10;;;17.40;99.90;;;;;;5034084;28;20936;-50
2021/09/09 02:00:08;;;;;;;18.70;15.17;;;17.30;99.90;;;;;;5034287;28;20484;-50
2021/09/09 02:02:41;;;;;;;17.10;15.40;;;17.30;99.90;;;;;;5034613;28;20559;-51
2021/09/09 02:05:09;;;;;;;17.97;16.10;;;17.30;99.90;;;;;;5034592;28;20432;-50
2021/09/09 02:07:35;;;;;;;17.20;15.40;;;17.30;99.90;;;;;;5034261;28;20430;-50
2021/09/09 02:10:02;;;;;;;17.60;15.70;;;17.60;99.90;;;;;;5034104;28;20440;-51
2021/09/09 02:12:28;;;;;;;20.20;16.10;;;17.30;99.90;;;;;;5034052;28;20548;-50
2021/09/09 02:14:55;;;;;;;17.47;15.63;;;17.20;99.90;;;;;;5034048;28;20436;-50
2021/09/09 02:17:23;;;;;;;17.90;16.00;;;17.20;99.90;;;;;;5034146;28;20437;-50
2021/09/09 02:19:50;;;;;;;17.93;15.93;;;17.20;99.90;;;;;;5033735;28;20495;-50
2021/09/09 02:22:17;;;;;;;19.30;14.90;;;17.20;99.90;;;;;;5033905;28;20547;-51
2021/09/09 02:24:45;;;;;;;20.93;16.60;;;17.20;99.90;;;;;;5033985;28;20448;-50
2021/09/09 02:27:13;;;;;;;16.13;14.47;;;17.20;99.90;;;;;;5033983;28;20475;-51
2021/09/09 02:29:40;;;;;;;17.60;14.30;;;17.20;99.90;;;;;;5033724;28;20433;-50
2021/09/09 02:32:08;;;;;;;16.40;14.63;;;17.20;99.90;;;;;;5034346;28;20447;-50
2021/09/09 02:34:36;;;;;;;18.23;14.40;;;17.10;99.90;;;;;;5033933;28;20443;-50
2021/09/09 02:37:04;;;;;;;18.10;15.20;;;17.10;99.90;;;;;;5034159;28;20432;-51
2021/09/09 02:39:30;;;;;;;15.17;13.67;;;17.10;99.90;;;;;;5033539;28;20436;-50
2021/09/09 02:41:57;;;;;;;16.80;15.10;;;17.10;99.90;;;;;;5034664;28;20547;-51
2021/09/09 02:44:24;;;;;;;18.13;16.23;;;17.10;99.90;;;;;;5034543;28;20436;-50
2021/09/09 02:46:50;;;;;;;17.90;15.47;;;17.00;99.90;;;;;;5035261;28;20794;-50
2021/09/09 02:49:17;;;;;;;15.43;13.83;;;17.00;99.90;;;;;;5033813;28;20432;-51
2021/09/09 02:51:45;;;;;;;20.80;15.70;;;17.00;99.90;;;;;;5033843;28;20967;-51
2021/09/09 02:54:11;;;;;;;17.93;15.77;;;17.00;99.90;;;;;;5033961;28;20440;-50
2021/09/09 02:56:38;;;;;;;21.93;16.77;;;17.00;99.90;;;;;;5033605;28;20449;-50
2021/09/09 02:59:05;;;;;;;17.67;15.77;;;16.90;99.90;;;;;;5033002;28;20429;-50
2021/09/09 03:01:31;;;;;;;21.07;15.43;;;16.80;99.90;;;;;;5033256;28;20610;-50
2021/09/09 03:03:58;;;;;;;17.33;15.60;;;16.90;99.90;;;;;;5033306;28;20433;-50
2021/09/09 03:06:24;;;;;;;17.40;14.43;;;16.90;99.90;;;;;;5033150;28;20940;-50
2021/09/09 03:08:52;;;;;;;17.10;15.30;;;16.90;99.90;;;;;;5032745;28;20431;-50
2021/09/09 03:11:19;;;;;;;19.90;16.20;;;17.20;99.90;;;;;;5033038;28;21107;-50
2021/09/09 03:13:45;;;;;;;19.57;14.53;;;16.80;99.90;;;;;;5033016;28;20430;-50
2021/09/09 03:16:12;;;;;;;17.23;15.43;;;16.80;99.90;;;;;;5033041;28;20499;-50
2021/09/09 03:18:38;;;;;;;20.53;15.80;;;16.80;99.90;;;;;;5032521;28;20464;-50
2021/09/09 03:21:05;;;;;;;17.73;14.73;;;16.80;99.90;;;;;;5032671;28;20479;-51
2021/09/09 03:23:32;;;;;;;17.70;15.93;;;16.40;99.90;;;;;;5032925;28;20467;-51
2021/09/09 03:26:00;;;;;;;16.93;15.20;;;16.70;99.90;;;;;;5033006;28;20797;-51
2021/09/09 03:28:26;;;;;;;20.70;16.43;;;16.80;99.90;;;;;;5032322;28;20431;-50
2021/09/09 03:30:53;;;;;;;20.83;14.90;;;16.70;99.90;;;;;;5032578;28;20436;-51
2021/09/09 03:33:19;;;;;;;16.70;15.00;;;16.70;99.90;;;;;;5032763;28;20455;-51
2021/09/09 03:35:46;;;;;;;17.80;15.83;;;16.70;99.90;;;;;;5032663;28;20440;-51
2021/09/09 03:38:13;;;;;;;20.57;16.47;;;16.70;99.90;;;;;;5032170;28;20917;-51
2021/09/09 03:40:40;;;;;;;18.40;15.33;;;16.70;99.90;;;;;;5032690;28;21191;-51
2021/09/09 03:43:08;;;;;;;18.27;16.37;;;16.60;99.90;;;;;;5032394;28;20460;-51
2021/09/09 03:45:34;;;;;;;18.47;16.63;;;16.60;99.90;;;;;;5032363;28;20439;-51
2021/09/09 03:48:01;;;;;;;16.80;15.20;;;16.60;99.90;;;;;;5030735;28;20493;-51
2021/09/09 03:50:27;;;;;;;19.13;15.90;;;16.60;99.90;;;;;;5031645;28;20975;-51
2021/09/09 03:52:54;;;;;;;21.07;15.80;;;17.10;99.90;;;;;;5032274;28;20464;-51
2021/09/09 03:55:21;;;;;;;17.10;15.40;;;16.90;99.90;;;;;;5032442;28;20848;-50
2021/09/09 03:57:48;;;;;;;20.00;16.57;;;16.60;99.90;;;;;;5031947;28;20450;-51
2021/09/09 04:00:18;;;;;;;17.77;15.70;;;16.50;99.90;;;;;;5032488;28;20463;-51
2021/09/09 04:02:44;;;;;;;19.47;17.47;;;16.50;99.90;;;;;;5032176;28;20447;-51
2021/09/09 04:05:11;;;;;;;17.93;16.10;;;16.50;99.90;;;;;;5032089;28;20431;-51
2021/09/09 04:07:38;;;;;;;19.57;17.23;;;16.50;99.90;;;;;;5031693;28;20442;-51
2021/09/09 04:10:05;;;;;;;18.43;16.60;;;16.50;99.90;;;;;;5031860;28;20944;-51
2021/09/09 04:12:32;;;;;;;21.23;17.70;;;16.50;99.90;;;;;;5031799;28;20455;-51
2021/09/09 04:15:01;;;;;;;21.67;16.83;;;16.50;99.90;;;;;;5031871;28;20447;-51
2021/09/09 04:17:29;;;;;;;19.27;17.30;;;16.40;99.90;;;;;;5031774;28;20529;-50
2021/09/09 04:19:56;;;;;;;16.27;14.57;;;16.40;99.90;;;;;;5031295;28;20437;-50
2021/09/09 04:22:23;;;;;;;18.73;16.83;;;16.40;99.90;;;;;;5031689;28;20889;-50
2021/09/09 04:24:49;;;;;;;19.23;16.53;;;16.40;99.90;;;;;;5031961;28;20958;-51
2021/09/09 04:27:17;;;;;;;18.80;16.80;;;16.40;99.90;;;;;;5031670;28;20442;-51
2021/09/09 04:29:43;;;;;;;20.70;15.97;;;16.40;99.90;;;;;;5031224;28;20443;-51
2021/09/09 04:32:10;;;;;;;21.97;17.40;;;16.40;99.90;;;;;;5031666;28;20456;-51
2021/09/09 04:34:38;;;;;;;21.63;18.37;;;16.40;99.90;;;;;;5031536;28;20438;-50
2021/09/09 04:37:05;;;;;;;24.83;19.10;;;16.40;99.90;;;;;;5031635;28;20958;-51
2021/09/09 04:39:31;;;;;;;20.03;16.23;;;16.30;99.90;;;;;;5031669;28;20432;-51
2021/09/09 04:41:58;;;;;;;19.10;16.50;;;16.30;99.90;;;;;;5031440;28;20904;-51
2021/09/09 04:44:25;;;;;;;21.27;15.30;;;16.30;99.90;;;;;;5031463;28;20494;-50
2021/09/09 04:46:51;;;;;;;17.60;15.73;;;16.30;99.90;;;;;;5031560;28;20463;-50
2021/09/09 04:49:18;;;;;;;18.80;16.77;;;16.20;99.90;;;;;;5031499;28;20488;-50
2021/09/09 04:51:46;;;;;;;21.57;17.27;;;16.30;99.90;;;;;;5031282;28;20452;-50
2021/09/09 04:54:13;;;;;;;22.67;17.70;;;16.30;99.90;;;;;;5031323;28;20432;-50
2021/09/09 04:56:39;;;;;;;18.50;16.43;;;16.20;99.90;;;;;;5031378;28;20436;-51
2021/09/09 04:59:06;;;;;;;22.80;17.73;;;16.30;99.90;;;;;;5030924;28;20447;-51
2021/09/09 05:01:32;;;;;;;19.90;17.03;;;16.30;99.90;;;;;;5031866;28;20483;-51
2021/09/09 05:03:59;;;;;;;20.27;16.73;;;16.30;99.90;;;;;;5035853;28;20807;-53
2021/09/09 05:06:26;;;;;;;22.20;17.60;;;16.30;99.90;;;;;;5034821;28;20810;-50
2021/09/09 05:08:54;;;;;;;21.17;18.20;;;16.30;99.90;;;;;;5034936;28;20442;-52
2021/09/09 05:11:21;;;;;;;20.93;18.13;;;16.30;99.90;;;;;;5034816;28;20444;-52
2021/09/09 05:13:48;;;;;;;22.63;15.03;;;16.30;99.90;;;;;;5035351;28;20439;-49
2021/09/09 05:16:15;;;;;;;18.93;16.37;;;16.30;99.90;;;;;;5034976;28;20446;-51
2021/09/09 05:18:41;;;;;;;18.47;15.70;;;16.40;99.90;;;;;;5034917;28;20443;-50
2021/09/09 05:21:08;;;;;;;18.33;16.30;;;16.40;99.90;;;;;;5034705;28;20481;-51
2021/09/09 05:23:35;;;;;;;21.23;16.53;;;16.40;99.90;;;;;;5034068;28;20451;-52
2021/09/09 05:26:02;;;;;;;15.17;13.63;;;16.40;99.90;;;;;;5034641;28;20443;-51
2021/09/09 05:28:29;;;;;;;28.70;16.10;;;16.50;99.90;;;;;;5033985;28;20436;-51
2021/09/09 05:30:56;;;;;;;19.47;15.90;;;16.50;99.90;;;;;;5034231;28;20402;-52
2021/09/09 05:33:22;;;;;;;18.13;15.50;;;16.50;99.90;;;;;;5034093;28;20990;-51
2021/09/09 05:35:49;;;;;;;16.60;14.90;;;16.50;99.90;;;;;;5034431;28;20478;-51
2021/09/09 05:38:16;;;;;;;18.57;13.90;;;16.70;99.90;;;;;;5034112;28;20428;-52
2021/09/09 05:40:42;;;;;;;18.70;14.47;;;16.80;99.90;;;;;;5034056;28;20965;-51
2021/09/09 05:43:10;;;;;;;15.83;14.20;;;17.00;99.90;;;;;;5034398;28;20530;-51
2021/09/09 05:45:37;;;;;;;25.67;16.00;;;17.00;99.90;;;;;;5034386;28;20528;-51
2021/09/09 05:48:04;;;;;;;16.03;14.30;;;17.10;99.90;;;;;;5034227;28;20434;-51
2021/09/09 05:50:31;;;;;;;18.03;14.60;;;17.20;99.90;;;;;;5032332;28;20444;-51
2021/09/09 05:52:58;;;;;;;16.47;13.00;;;17.30;99.90;;;;;;5034047;28;20459;-51
2021/09/09 05:55:24;;;;;;;19.93;13.47;;;17.40;99.90;;;;;;5034225;28;20450;-51
2021/09/09 05:57:51;;;;;;;15.77;14.10;;;17.50;99.90;;;;;;5033045;28;20463;-51
2021/09/09 06:00:24;;;;;;;17.67;14.33;;;17.60;99.90;;;;;;5034426;28;20442;-51
2021/09/09 06:02:51;;;;;;;16.27;13.40;;;17.70;99.90;;;;;;5034225;28;20559;-52
2021/09/09 06:05:19;;;;;;;17.57;14.33;;;17.80;99.90;;;;;;5034003;28;20988;-51
2021/09/09 06:07:46;;;;;;;15.90;14.20;;;17.80;99.90;;;;;;5033475;28;20423;-51
2021/09/09 06:10:13;;;;;;;15.10;11.80;;;17.90;99.90;;;;;;5033590;28;20440;-51
2021/09/09 06:12:40;;;;;;;18.33;13.80;;;18.00;99.90;;;;;;5034125;28;20553;-51
2021/09/09 06:15:08;;;;;;;13.80;12.23;;;18.00;99.90;;;;;;5032949;28;20437;-51
2021/09/09 06:17:35;;;;;;;14.50;13.00;;;18.10;99.90;;;;;;5033933;28;20452;-51
2021/09/09 06:20:03;;;;;;;16.47;12.97;;;18.10;99.90;;;;;;5033857;28;20524;-52
2021/09/09 06:22:29;;;;;;;17.77;12.60;;;18.20;99.90;;;;;;5033650;28;21076;-52
2021/09/09 06:24:56;;;;;;;19.53;12.70;;;18.20;99.90;;;;;;5034165;28;20488;-51
2021/09/09 06:27:23;;;;;;;14.33;12.67;;;18.30;99.90;;;;;;5033760;28;20441;-51
2021/09/09 06:29:49;;;;;;;15.90;12.40;;;18.30;99.90;;;;;;5034038;28;20449;-51
2021/09/09 06:32:16;;;;;;;15.90;13.10;;;18.40;99.90;;;;;;5033955;28;20454;-51
2021/09/09 06:34:44;;;;;;;12.97;11.67;;;18.40;99.90;;;;;;5033463;28;20450;-51
2021/09/09 06:37:11;;;;;;;15.93;12.00;;;18.50;99.90;;;;;;5033316;28;20450;-52
2021/09/09 06:39:37;;;;;;;12.87;11.23;;;18.50;99.90;;;;;;5033077;28;20453;-52
2021/09/09 06:42:04;;;;;;;16.17;12.33;;;18.50;99.90;;;;;;5049385;23;20498;-50
2021/09/09 06:44:31;;;;;;;12.23;11.03;;;18.60;99.90;;;;;;5053625;28;20448;-51
2021/09/09 06:46:58;;;;;;;12.80;11.20;;;18.60;99.90;;;;;;5053254;28;20435;-52
2021/09/09 06:49:24;;;;;;;16.93;12.57;;;18.60;99.90;;;;;;5052866;28;20461;-52
2021/09/09 06:51:52;;;;;;;18.53;12.07;;;18.50;99.80;;;;;;5053213;28;20801;-52
2021/09/09 06:54:19;;;;;;;13.00;11.67;;;18.60;99.70;;;;;;5052523;28;20433;-53
2021/09/09 06:56:45;;;;;;;13.93;12.47;;;18.70;99.60;;;;;;5052812;28;20442;-51
2021/09/09 06:59:12;;;;;;;15.30;11.73;;;18.70;99.50;;;;;;5052149;28;20440;-52
2021/09/09 07:01:39;;;;;;;16.57;12.03;;;18.70;99.40;;;;;;5053095;28;20484;-52
2021/09/09 07:04:05;;;;;;;14.77;11.40;;;18.70;99.20;;;;;;5052838;28;20430;-52
2021/09/09 07:06:32;;;;;;;15.00;12.77;;;18.80;99.30;;;;;;5052644;28;20438;-52
2021/09/09 07:09:00;;;;;;;15.73;12.33;;;18.80;99.20;;;;;;5052351;28;20962;-52
2021/09/09 07:11:26;;;;;;;15.00;11.50;;;18.80;99.00;;;;;;5052592;28;20536;-51
2021/09/09 07:13:53;;;;;;;17.50;12.00;;;18.80;99.00;;;;;;5052455;28;20947;-51
2021/09/09 07:16:20;;;;;;;13.40;10.93;;;18.80;98.80;;;;;;5052129;28;20444;-51
2021/09/09 07:18:46;;;;;;;13.17;11.83;;;18.90;99.00;;;;;;5052031;28;20959;-52
2021/09/09 07:21:13;;;;;;;14.30;11.07;;;18.90;98.90;;;;;;5052103;28;20445;-51
2021/09/09 07:23:40;;;;;;;15.10;10.57;;;18.90;98.80;;;;;;5051778;28;20457;-51
2021/09/09 07:26:08;;;;;;;18.73;12.07;;;18.90;98.90;;;;;;5052439;28;20958;-51
2021/09/09 07:28:34;;;;;;;12.73;11.43;;;19.00;98.90;;;;;;5051466;28;20454;-52
2021/09/09 07:31:01;;;;;;;11.77;9.97;;;19.00;98.80;;;;;;5052181;28;20442;-52
2021/09/09 07:33:28;;;;;;;15.80;11.03;;;19.00;98.80;;;;;;5052019;28;20958;-52
2021/09/09 07:35:54;;;;;;;12.30;11.00;;;19.10;98.80;;;;;;5052014;28;20445;-51
2021/09/09 07:38:21;;;;;;;15.37;10.90;;;19.10;98.70;;;;;;5051698;28;20529;-52
2021/09/09 07:40:48;;;;;;;15.30;10.93;;;19.10;98.60;;;;;;5051756;28;20445;-52
2021/09/09 07:43:16;;;;;;;13.07;8.90;;;19.10;98.50;;;;;;5051748;28;20495;-51
2021/09/09 07:45:42;;;;;;;12.30;9.80;;;19.10;98.20;;;;;;5051624;28;20442;-52
2021/09/09 07:48:09;;;;;;;12.33;9.83;;;19.20;98.10;;;;;;5051754;28;20956;-51
2021/09/09 07:50:36;;;;;;;10.93;9.73;;;19.20;98.20;;;;;;5052008;28;20495;-52
2021/09/09 07:53:02;;;;;;;12.47;9.23;;;19.20;98.10;;;;;;5052180;28;20450;-50
2021/09/09 07:55:29;;;;;;;11.30;8.50;;;19.30;98.00;;;;;;5052780;28;20929;-50
2021/09/09 07:57:56;;;;;;;10.60;8.80;;;19.30;97.70;;;;;;5052512;28;20754;-50
2021/09/09 08:00:24;;;;;;;11.80;9.17;;;19.30;97.50;;;;;;5051996;28;20440;-52
2021/09/09 08:02:50;;;;;;;10.83;8.03;;;19.30;97.40;;;;;;5051730;28;20489;-52
2021/09/09 08:05:17;;;;;;;14.93;9.33;;;19.40;97.50;;;;;;5051596;28;20436;-51
2021/09/09 08:07:45;;;;;;;10.03;8.70;;;19.40;97.30;;;;;;5051296;28;20809;-51
2021/09/09 08:10:14;;;;;;;13.40;8.40;;;19.50;97.20;;;;;;5051064;28;20441;-51
2021/09/09 08:12:41;;;;;;;11.90;9.77;;;19.50;97.10;;;;;;5051251;28;20477;-51
2021/09/09 08:15:09;;;;;;;12.20;8.90;;;19.60;97.10;;;;;;5051384;28;20781;-51
2021/09/09 08:17:37;;;;;;;10.87;8.03;;;19.60;97.20;;;;;;5051563;28;20530;-51
2021/09/09 08:20:05;;;;;;;14.27;8.40;;;19.60;97.10;;;;;;5051620;28;20832;-51
2021/09/09 08:22:32;;;;;;;11.30;7.67;;;19.70;96.70;;;;;;5051229;28;20484;-51
2021/09/09 08:24:59;;;;;;;9.50;8.40;;;19.80;96.50;;;;;;5051227;28;20949;-51
2021/09/09 08:27:29;;;;;;;12.73;8.23;;;19.80;96.50;;;;;;5051116;28;20440;-51
2021/09/09 08:29:56;;;;;;;11.03;8.10;;;19.90;96.50;;;;;;5051194;28;20443;-51
2021/09/09 08:32:24;;;;;;;11.23;7.87;;;19.90;96.40;;;;;;5051125;28;20943;-51
2021/09/09 08:34:52;;;;;;;19.33;8.30;;;19.90;96.30;;;;;;5049599;28;20985;-51
2021/09/09 08:37:19;;;;;;;14.37;8.57;;;20.00;96.30;;;;;;5050935;28;20434;-51
2021/09/09 08:39:45;;;;;;;13.77;8.33;;;20.00;96.20;;;;;;5050865;28;20431;-52
2021/09/09 08:42:12;;;;;;;9.47;7.53;;;20.00;96.10;;;;;;5050931;28;20487;-51
2021/09/09 08:44:39;;;;;;;10.70;7.10;;;20.00;96.10;;;;;;5049571;28;20483;-52
2021/09/09 08:47:08;;;;;;;13.53;8.87;;;20.10;95.50;;;;;;5051376;28;20435;-51
2021/09/09 08:49:35;;;;;;;10.90;8.03;;;20.10;95.50;;;;;;5051044;28;20431;-51
2021/09/09 08:52:04;;;;;;;11.60;7.83;;;20.20;95.20;;;;;;5051517;28;20454;-52
2021/09/09 08:54:31;;;;;;;11.73;7.93;;;20.20;94.90;;;;;;5051015;28;20995;-52
2021/09/09 08:56:57;;;;;;;10.87;7.10;;;20.30;95.10;;;;;;5051077;28;20430;-52
2021/09/09 08:59:24;;;;;;;12.90;10.67;;;20.30;95.30;;;;;;5050559;28;20428;-51
2021/09/09 09:02:02;;;;;;;12.27;7.90;;;20.40;95.40;;;;;;5051151;28;20821;-51
2021/09/09 09:04:30;;;;;;;12.80;7.50;;;20.40;95.20;;;;;;5050985;28;20501;-52
2021/09/09 09:06:57;;;;;;;8.50;6.73;;;20.40;95.20;;;;;;5050738;28;20956;-51
2021/09/09 09:09:25;;;;;;;11.73;7.60;;;20.40;95.00;;;;;;5050542;28;20439;-52
2021/09/09 09:11:53;;;;;;;9.30;7.97;;;20.40;95.00;;;;;;5051777;28;20539;-51
2021/09/09 09:14:22;;;;;;;8.10;7.30;;;20.50;95.00;;;;;;5050834;28;20477;-52
2021/09/09 09:16:51;;;;;;;8.60;7.53;;;20.50;94.70;;;;;;5050689;28;20467;-51
2021/09/09 09:19:20;;;;;;;10.87;7.80;;;20.60;94.50;;;;;;5050373;28;20611;-51
2021/09/09 09:21:50;;;;;;;12.43;8.27;;;20.60;94.50;;;;;;5050778;28;20447;-52
2021/09/09 09:24:19;;;;;;;10.37;7.80;;;20.70;94.50;;;;;;5050677;28;20529;-52
2021/09/09 09:27:09;;;;;;;12.70;8.10;;;20.70;94.30;;;;;;5050386;28;20443;-52
2021/09/09 09:29:35;;;;;;;12.00;8.60;;;20.80;94.20;;;;;;5050047;28;20497;-51
2021/09/09 09:32:14;;;;;;;9.13;7.63;;;20.90;94.40;;;;;;5050510;28;20459;-51
2021/09/09 09:34:41;;;;;;;11.40;9.07;;;20.80;94.10;;;;;;5050403;28;20440;-51
2021/09/09 09:37:08;;;;;;;9.20;7.40;;;20.80;94.30;;;;;;5050468;28;20436;-51
2021/09/09 09:39:35;;;;;;;12.00;8.03;;;20.80;94.20;;;;;;5050321;28;20460;-51
2021/09/09 09:42:06;;;;;;;11.63;9.23;;;20.90;94.20;;;;;;5050293;28;20489;-51
2021/09/09 09:44:35;;;;;;;11.60;7.20;;;20.90;93.90;;;;;;5050922;28;20559;-51
2021/09/09 09:47:10;;;;;;;13.43;7.90;;;21.00;93.80;;;;;;5051186;28;20437;-51
2021/09/09 09:49:39;;;;;;;7.83;6.90;;;21.00;93.60;;;;;;5051938;28;20441;-51
2021/09/09 09:52:08;;;;;;;15.90;7.33;;;21.00;93.70;;;;;;5054295;28;20469;-51
2021/09/09 09:54:35;;;;;;;13.10;7.50;;;21.00;93.60;;;;;;5054312;28;20955;-51
2021/09/09 09:57:02;;;;;;;11.67;7.90;;;21.00;93.60;;;;;;5054262;28;20465;-51
2021/09/09 09:59:31;;;;;;;12.70;7.40;;;21.10;93.70;;;;;;5053520;28;20444;-51
2021/09/09 10:02:00;;;;;;;12.03;7.93;;;21.20;93.60;;;;;;5054371;28;20476;-51
2021/09/09 10:04:27;;;;;;;9.50;7.67;;;21.20;93.30;;;;;;5054364;28;20442;-51
2021/09/09 10:06:55;;;;;;;17.53;7.90;;;21.30;93.20;;;;;;5054003;28;20441;-51
2021/09/09 10:09:22;;;;;;;9.37;7.80;;;21.30;93.20;;;;;;5053460;28;20437;-51
2021/09/09 10:11:49;;;;;;;10.03;7.00;;;21.40;93.10;;;;;;5053596;28;20469;-51
2021/09/09 10:14:20;;;;;;;9.73;7.40;;;21.40;92.90;;;;;;5053941;28;20425;-51
2021/09/09 10:16:49;;;;;;;11.33;7.33;;;21.50;92.60;;;;;;5053901;28;20433;-54
2021/09/09 10:19:28;;;;;;;8.37;7.03;;;21.60;92.60;;;;;;5053660;28;20429;-51
2021/09/09 10:22:07;;;;;;;15.67;8.30;;;21.60;92.40;;;;;;5053509;28;20438;-51
2021/09/09 10:24:36;;;;;;;9.10;7.60;;;21.70;92.00;;;;;;5056044;28;20430;-51
2021/09/09 10:27:17;;;;;;;10.30;7.53;;;21.60;92.00;;;;;;5053633;28;20460;-51
2021/09/09 10:29:45;;;;;;;9.47;7.70;;;21.70;91.90;;;;;;5053072;28;20428;-51
2021/09/09 10:32:46;;;;;;;7.37;6.30;;;21.70;92.00;;;;;;5053084;28;20458;-51
2021/09/09 10:35:32;;;;;;;8.23;6.80;;;21.80;91.90;;;;;;5053565;28;20842;-52
2021/09/09 10:38:25;;;;;;;8.97;7.10;;;21.90;91.70;;;;;;5053328;28;20469;-52
2021/09/09 10:40:52;;;;;;;8.03;6.57;;;21.90;91.60;;;;;;5053993;28;20441;-52
2021/09/09 10:43:44;;;;;;;8.20;7.50;;;22.00;91.70;;;;;;5053190;28;20488;-51
2021/09/09 10:46:12;;;;;;;12.43;6.70;;;22.10;91.50;;;;;;5053604;28;20999;-50
2021/09/09 10:48:38;;;;;;;11.87;7.03;;;22.00;91.90;;;;;;5052936;28;20445;-49
2021/09/09 10:51:09;;;;;;;10.77;8.03;;;22.10;91.70;;;;;;5052974;28;20981;-50
2021/09/09 10:53:37;;;;;;;8.37;7.57;;;22.10;91.70;;;;;;5053876;28;20877;-51
2021/09/09 10:56:12;;;;;;;12.70;7.70;;;22.20;91.60;;;;;;5052454;28;20946;-51
2021/09/09 10:58:39;;;;;;;8.87;7.83;;;22.20;91.50;;;;;;5052249;28;20931;-52
2021/09/09 11:01:07;;;;;;;12.17;6.93;;;22.20;91.60;;;;;;5052858;28;21026;-52
2021/09/09 11:03:41;;;;;;;11.33;7.40;;;22.30;91.50;;;;;;5052795;28;20496;-52
2021/09/09 11:06:11;;;;;;;8.77;6.20;;;22.40;91.50;;;;;;5053125;28;20438;-52
2021/09/09 11:08:39;;;;;;;11.13;7.30;;;22.40;91.50;;;;;;5052505;28;20429;-51
2021/09/09 11:11:07;;;;;;;9.20;6.93;;;22.40;91.50;;;;;;5053560;28;20431;-51
2021/09/09 11:13:36;;;;;;;12.03;7.43;;;22.50;91.30;;;;;;5052880;28;20548;-51
2021/09/09 11:16:18;;;;;;;7.70;6.60;;;22.50;91.20;;;;;;5052599;28;20946;-51
2021/09/09 11:18:46;;;;;;;11.50;6.77;;;22.50;91.10;;;;;;5052188;28;20436;-52
2021/09/09 11:21:21;;;;;;;10.80;6.83;;;22.50;91.20;;;;;;5053241;28;20629;-52
2021/09/09 11:23:49;;;;;;;11.73;6.63;;;22.50;91.10;;;;;;5053096;28;20840;-52
2021/09/09 11:26:18;;;;;;;9.00;7.40;;;22.50;91.40;;;;;;5052548;28;20437;-51
2021/09/09 11:28:46;;;;;;;7.30;6.60;;;22.60;91.00;;;;;;5052188;28;20788;-52
2021/09/09 11:31:16;;;;;;;8.03;7.27;;;22.60;91.00;;;;;;5052595;28;20440;-51
2021/09/09 11:33:53;;;;;;;11.60;9.10;;;22.60;91.00;;;;;;5052599;28;20490;-51
2021/09/09 11:36:24;;;;;;;8.17;7.10;;;22.70;90.70;;;;;;5052229;28;20435;-52
2021/09/09 11:38:53;;;;;;;8.67;7.77;;;22.80;90.60;;;;;;5053005;28;20437;-52
2021/09/09 11:41:21;;;;;;;13.87;7.00;;;22.90;90.10;;;;;;5052505;28;20440;-51
2021/09/09 11:43:50;;;;;;;13.17;8.73;;;22.90;90.30;;;;;;5051700;28;20839;-52
2021/09/09 11:46:25;;;;;;;10.40;8.20;;;22.90;90.40;;;;;;5051702;28;20435;-51
2021/09/09 11:48:53;;;;;;;14.53;8.47;;;23.00;90.10;;;;;;5050200;28;20528;-51
2021/09/09 11:51:32;;;;;;;8.73;7.40;;;23.00;90.20;;;;;;5052406;28;20484;-52
2021/09/09 11:53:59;;;;;;;9.90;6.77;;;23.10;89.70;;;;;;5051423;28;20548;-50
2021/09/09 11:56:26;;;;;;;9.37;7.27;;;23.10;89.90;;;;;;5051795;28;20490;-53
2021/09/09 11:58:52;;;;;;;8.97;7.50;;;23.20;89.50;;;;;;5051553;28;20443;-51
2021/09/09 12:01:20;;;;;;;15.23;8.40;;;23.20;89.50;;;;;;5051340;28;20939;-51
2021/09/09 12:03:47;;;;;;;11.10;6.83;;;23.30;89.60;;;;;;5050837;28;20483;-52
2021/09/09 12:06:17;;;;;;;8.67;7.20;;;23.40;89.60;;;;;;5051203;28;20806;-50
2021/09/09 12:08:46;;;;;;;7.97;7.17;;;23.40;89.10;;;;;;5049862;28;20551;-51
2021/09/09 12:11:14;;;;;;;13.03;8.83;;;23.50;88.50;;;;;;5050488;28;20434;-51
2021/09/09 12:13:43;;;;;;;10.40;7.70;;;23.50;88.40;;;;;;5051101;28;20457;-51
2021/09/09 12:16:16;;;;;;;9.30;7.23;;;23.60;89.00;;;;;;5050985;28;20440;-51
2021/09/09 12:18:44;;;;;;;8.50;7.30;;;23.60;88.30;;;;;;5050687;28;20470;-51
2021/09/09 12:21:12;;;;;;;7.50;6.80;;;23.60;87.70;;;;;;5051835;28;20963;-51
2021/09/09 12:23:39;;;;;;;9.33;6.93;;;23.70;88.50;;;;;;5051363;28;20480;-51
2021/09/09 12:26:17;;;;;;;9.90;7.23;;;23.70;87.40;;;;;;5051366;28;20437;-52
2021/09/09 12:28:45;;;;;;;8.70;7.40;;;23.70;87.20;;;;;;5050193;28;20468;-52
2021/09/09 12:31:13;;;;;;;13.00;7.00;;;23.70;87.50;;;;;;5051430;28;20444;-52
2021/09/09 12:33:52;;;;;;;10.77;8.07;;;23.70;87.50;;;;;;5051831;28;20451;-51
2021/09/09 12:36:20;;;;;;;7.20;6.50;;;23.80;87.50;;;;;;5051828;28;20437;-51
2021/09/09 12:38:48;;;;;;;10.30;7.10;;;23.80;87.20;;;;;;5051212;28;20448;-50